Aviation Digital Data Service (ADDS)

Output produced by METARs form (0117 UTC 24 May 2019)
found at http://www.aviationweather.gov/metar/data/
 
UBBB 240100Z 32004KT CAVOK 15/13 Q1012 R88/D NOSIG
TAF UBBB 232303Z 2400/2424 VRB04KT CAVOK TX25/2410Z TN15/2403Z 
     TEMPO 2400/2404 34006KT SCT007 
     BECMG 2404/2406 04008KT 
     TEMPO 2406/2414 10008KT SCT020 
     BECMG 2414/2416 16006KT SCT020 BKN080 
     TEMPO 2416/2424 FEW050CB
       
UBBG 240100Z 25008KT 9999 BKN100 19/11 Q1013 R30/CLRD// NOSIG
TAF UBBG 232300Z 2400/2424 26008KT 9999 SCT040 BKN080 TX26/2412Z TN17/2402Z 
     BECMG 2405/2407 31010KT 
     TEMPO 2410/2416 VRB10KT SCT030CB BKN060